Airfield :
LOGIN :

Register | Disclaimer

   EN    FR    IT 

 










Legend :    VFR   Marginal VFR   IFR   Intensive IFR   Very Intensive IFR
Visi :
Ceiling :
>= 8 km
>= 3000ft
5 to 8 km
1000 to 3000 ft
1500m to 5 km
500 to 1000 ft
800 to 1500m
200 to 500 ft
< 800m
< 200 ft
Symbols :   Thunderstorms  Fog  Heavy snow  Heavy precipitations  Wind > 20 kt
SIGMETs :     Misc.  Thunderstorms  Icing  Turbulence  Mountain Waves  Volcanic Ashes






- Airport Elevation : 1273 ft
- IATA code : LJU


LJLJ - Ljubljana

CURRENT METAR :
  • 120900Z VRB02KT 9999 FEW042 25/18 Q1019 NOSIG

EXPIRED METARs :
  • 120830Z 27001KT 9999 FEW030 24/18 Q1019 NOSIG
  • 120800Z 29001KT 9999 FEW038 SCT049 22/18 Q1020 NOSIG
  • 120730Z 28003KT 240V330 9999 FEW028 BKN037 21/17 Q1020 NOSIG
  • 120700Z VRB02KT 9999 FEW028 BKN037 20/18 Q1019 NOSIG
  • 120630Z VRB02KT 9999 FEW001 SCT037 19/18 Q1019 NOSIG

TAF TAF LJLJ
Valid from the 12 at 06:00 until the 13 at 06:00 UTC


120500Z 1206/1306 27004KT CAVOK
TEMPO 1206/1207 0500 FG VV002
PROB40
TEMPO 1210/1218 VRB15KT 5000 TSRA SCT035CB BKN050
PROB30
TEMPO 1303/1306 0500 FG VV002



MET'MAP, your aeronautical weather chart ! - Copyright ORBIFLY December 2007 - Disclaimer

ORBIFLY MET'MAP TEAM :

Programming & Development : Alexandra Zaïnal
Concept & original design : Baudouin d'Aumeries
Assistance for programming : Marc-Olivier Méhu
Technical & hardware support : Manuel Goepfert

Contact : metmap@orbifly.com




SOURCES & CREDITS :

   NOAA